sensor_id;sensor_type;location;lat;lon;timestamp;P1;durP1;ratioP1;P2;durP2;ratioP2
12966;SDS011;6548;49.996;8.238;2024-03-23T22:10:43;1.25;;;0.80;;
12966;SDS011;6548;49.996;8.238;2024-03-23T22:13:10;3.75;;;1.48;;
12966;SDS011;6548;49.996;8.238;2024-03-23T22:15:36;2.30;;;1.20;;
12966;SDS011;6548;49.996;8.238;2024-03-23T22:18:01;3.85;;;1.77;;
12966;SDS011;6548;49.996;8.238;2024-03-23T22:20:28;3.58;;;2.53;;
12966;SDS011;6548;49.996;8.238;2024-03-23T22:22:54;6.72;;;2.80;;
12966;SDS011;6548;49.996;8.238;2024-03-23T22:25:20;2.78;;;2.30;;
12966;SDS011;6548;49.996;8.238;2024-03-23T22:27:47;2.42;;;1.95;;
12966;SDS011;6548;49.996;8.238;2024-03-23T22:30:12;3.50;;;2.03;;
12966;SDS011;6548;49.996;8.238;2024-03-23T22:32:38;3.25;;;2.25;;
12966;SDS011;6548;49.996;8.238;2024-03-23T22:35:03;2.00;;;1.80;;
12966;SDS011;6548;49.996;8.238;2024-03-23T22:37:29;2.67;;;2.15;;
12966;SDS011;6548;49.996;8.238;2024-03-23T22:39:55;5.43;;;4.10;;
12966;SDS011;6548;49.996;8.238;2024-03-23T22:42:21;5.43;;;2.97;;
12966;SDS011;6548;49.996;8.238;2024-03-23T22:44:46;3.35;;;2.13;;
12966;SDS011;6548;49.996;8.238;2024-03-23T22:47:12;5.40;;;2.70;;
12966;SDS011;6548;49.996;8.238;2024-03-23T22:49:37;3.83;;;2.20;;
12966;SDS011;6548;49.996;8.238;2024-03-23T22:52:03;5.95;;;2.03;;
12966;SDS011;6548;49.996;8.238;2024-03-23T22:54:29;4.38;;;3.10;;
12966;SDS011;6548;49.996;8.238;2024-03-23T22:56:55;4.65;;;3.15;;
12966;SDS011;6548;49.996;8.238;2024-03-23T22:59:20;7.63;;;2.80;;
12966;SDS011;6548;49.996;8.238;2024-03-23T23:01:47;4.00;;;2.65;;
12966;SDS011;6548;49.996;8.238;2024-03-23T23:04:13;6.55;;;3.45;;
12966;SDS011;6548;49.996;8.238;2024-03-23T23:06:39;5.85;;;2.78;;
12966;SDS011;6548;49.996;8.238;2024-03-23T23:09:05;3.75;;;2.45;;
12966;SDS011;6548;49.996;8.238;2024-03-23T23:11:31;5.75;;;3.42;;
12966;SDS011;6548;49.996;8.238;2024-03-23T23:13:57;6.85;;;3.70;;
12966;SDS011;6548;49.996;8.238;2024-03-23T23:16:25;6.28;;;3.33;;
12966;SDS011;6548;49.996;8.238;2024-03-23T23:18:51;5.45;;;3.08;;
12966;SDS011;6548;49.996;8.238;2024-03-23T23:21:16;4.95;;;2.92;;
12966;SDS011;6548;49.996;8.238;2024-03-23T23:23:46;4.18;;;3.58;;
12966;SDS011;6548;49.996;8.238;2024-03-23T23:26:11;5.75;;;3.40;;
12966;SDS011;6548;49.996;8.238;2024-03-23T23:28:37;5.47;;;4.03;;
12966;SDS011;6548;49.996;8.238;2024-03-23T23:31:02;7.03;;;4.03;;
12966;SDS011;6548;49.996;8.238;2024-03-23T23:33:28;6.25;;;3.80;;
12966;SDS011;6548;49.996;8.238;2024-03-23T23:35:54;5.53;;;3.20;;
12966;SDS011;6548;49.996;8.238;2024-03-23T23:38:20;5.95;;;3.53;;
12966;SDS011;6548;49.996;8.238;2024-03-23T23:40:47;3.70;;;2.97;;
12966;SDS011;6548;49.996;8.238;2024-03-23T23:43:12;4.90;;;2.97;;
12966;SDS011;6548;49.996;8.238;2024-03-23T23:45:38;6.72;;;3.80;;
12966;SDS011;6548;49.996;8.238;2024-03-23T23:48:04;5.25;;;3.40;;
12966;SDS011;6548;49.996;8.238;2024-03-23T23:50:30;6.10;;;3.50;;
12966;SDS011;6548;49.996;8.238;2024-03-23T23:52:55;5.03;;;4.00;;
12966;SDS011;6548;49.996;8.238;2024-03-23T23:55:21;4.75;;;3.38;;
12966;SDS011;6548;49.996;8.238;2024-03-23T23:57:47;5.80;;;3.72;;
